Time;durP1;ratioP1;P1;durP2;ratioP2;P2;SDS_P1;SDS_P2;PMS_P1;PMS_P2;Temp;Humidity;BMP_temperature;BMP_pressure;BME280_temperature;BME280_humidity;BME280_pressure;Samples;Min_cycle;Max_cycle;Signal;HPM_P1;HPM_P2
2022/10/25 00:01:26;;;;;;;12.25;6.38;;;;;;;14.14;100.00;100567.22;5015106;28;20368;-74
2022/10/25 00:03:52;;;;;;;11.05;6.38;;;;;;;13.93;100.00;100492.03;5013326;28;20057;-74
2022/10/25 00:06:17;;;;;;;9.85;6.10;;;;;;;13.76;100.00;100479.00;5013586;28;20041;-74
2022/10/25 00:08:43;;;;;;;12.35;6.40;;;;;;;14.02;100.00;100508.81;5013729;28;20100;-74
2022/10/25 00:11:15;;;;;;;13.50;6.32;;;;;;;14.32;100.00;100543.59;5014355;28;20120;-74
2022/10/25 00:13:40;;;;;;;9.60;6.07;;;;;;;13.82;100.00;100476.25;5014149;28;20061;-74
2022/10/25 00:16:13;;;;;;;11.23;5.97;;;;;;;14.01;100.00;100539.50;5014648;28;20060;-75
2022/10/25 00:18:39;;;;;;;9.88;5.88;;;;;;;13.78;100.00;100502.78;5014325;28;20036;-74
2022/10/25 00:21:04;;;;;;;10.23;6.10;;;;;;;13.99;100.00;100536.16;5014382;28;20404;-74
2022/10/25 00:23:30;;;;;;;10.48;6.60;;;;;;;13.26;100.00;100482.31;5014607;28;20096;-74
2022/10/25 00:26:07;;;;;;;9.80;6.53;;;;;;;13.59;100.00;100542.56;5012941;28;20129;-74
2022/10/25 00:28:33;;;;;;;9.75;6.80;;;;;;;13.48;100.00;100487.59;5013136;28;20021;-73
2022/10/25 00:31:13;;;;;;;12.20;6.38;;;;;;;13.44;100.00;100540.50;5014475;28;20041;-73
2022/10/25 00:33:40;;;;;;;14.15;7.53;;;;;;;13.59;100.00;100545.13;5014003;28;20053;-73
2022/10/25 00:36:17;;;;;;;10.73;6.72;;;;;;;13.48;100.00;100490.97;5014316;28;20026;-74
2022/10/25 00:38:44;;;;;;;11.68;7.20;;;;;;;13.00;100.00;100484.78;5014005;28;20052;-74
2022/10/25 00:41:11;;;;;;;14.85;7.55;;;;;;;13.52;100.00;100517.25;5014019;28;20099;-74
2022/10/25 00:43:46;;;;;;;12.45;7.30;;;;;;;13.50;100.00;100537.75;5013984;28;20073;-74
2022/10/25 00:46:22;;;;;;;12.65;7.30;;;;;;;13.48;100.00;100531.84;5012621;28;20124;-74
2022/10/25 00:49:07;;;;;;;12.73;7.43;;;;;;;13.49;100.00;100532.69;5014147;28;20061;-73
2022/10/25 00:51:44;;;;;;;13.27;7.45;;;;;;;13.48;100.00;100511.41;5012733;28;20065;-73
2022/10/25 00:54:13;;;;;;;12.20;7.60;;;;;;;13.59;100.00;100460.81;5013724;28;20149;-73
2022/10/25 00:56:42;;;;;;;16.60;8.00;;;;;;;13.83;100.00;100520.50;5012360;28;20030;-74
2022/10/25 00:59:11;;;;;;;11.93;7.80;;;;;;;13.35;100.00;100453.91;5014045;28;20029;-74
2022/10/25 01:01:38;;;;;;;12.25;7.55;;;;;;;13.86;100.00;100515.31;5013874;28;20029;-73
2022/10/25 01:04:08;;;;;;;13.02;7.50;;;;;;;13.33;100.00;100465.91;5019103;28;20519;-74
2022/10/25 01:06:41;;;;;;;12.70;7.20;;;;;;;13.35;100.00;100443.72;5022539;28;20103;-74
2022/10/25 01:09:09;;;;;;;15.43;7.38;;;;;;;13.70;100.00;100483.47;5013236;28;20065;-74
2022/10/25 01:11:36;;;;;;;12.13;7.78;;;;;;;13.12;100.00;100471.69;5013232;28;20018;-74
2022/10/25 01:14:03;;;;;;;11.38;7.40;;;;;;;13.38;100.00;100447.88;5013674;28;20026;-73
2022/10/25 01:16:54;;;;;;;12.55;7.57;;;;;;;13.64;100.00;100507.50;5012213;28;20492;-74
2022/10/25 01:19:38;;;;;;;15.18;8.02;;;;;;;13.36;100.00;100505.84;5012840;28;20037;-74
2022/10/25 01:22:22;;;;;;;12.98;7.63;;;;;;;13.76;100.00;100509.66;5012695;28;20510;-74
2022/10/25 01:25:08;;;;;;;14.85;8.02;;;;;;;13.45;100.00;100513.25;5013368;28;20119;-75
2022/10/25 01:27:47;;;;;;;11.77;7.28;;;;;;;13.61;100.00;100506.75;5013075;28;20025;-75
2022/10/25 01:30:13;;;;;;;14.18;7.18;;;;;;;13.34;100.00;100518.66;5011932;28;20040;-73
2022/10/25 01:32:52;;;;;;;13.90;7.80;;;;;;;13.39;100.00;100510.88;5012856;28;20408;-73
2022/10/25 01:35:21;;;;;;;13.52;7.80;;;;;;;13.46;100.00;100518.28;5013051;28;20041;-74
2022/10/25 01:37:59;;;;;;;12.80;7.45;;;;;;;13.26;100.00;100450.81;5012837;28;20073;-73
2022/10/25 01:40:48;;;;;;;15.95;7.93;;;;;;;13.29;100.00;100512.03;5012840;28;20113;-73
2022/10/25 01:43:35;;;;;;;10.27;7.20;;;;;;;13.69;100.00;100508.16;5012628;28;20057;-73
2022/10/25 01:46:31;;;;;;;10.27;7.10;;;;;;;13.42;100.00;100508.22;5011761;28;20042;-73
2022/10/25 01:49:03;;;;;;;11.02;7.10;;;;;;;13.41;100.00;100509.09;5011746;28;20430;-73
2022/10/25 01:51:29;;;;;;;15.80;7.72;;;;;;;13.47;100.00;100494.41;5012370;28;20500;-73
2022/10/25 01:53:55;;;;;;;11.68;6.75;;;;;;;13.51;100.00;100490.88;5011448;28;20033;-73
2022/10/25 01:56:25;;;;;;;12.88;7.63;;;;;;;13.52;100.00;100500.22;5012460;28;20049;-74
2022/10/25 01:59:22;;;;;;;11.10;7.75;;;;;;;13.22;100.00;100462.88;5011528;28;20069;-74
2022/10/25 02:01:59;;;;;;;11.73;7.25;;;;;;;13.43;100.00;100497.94;5012367;28;20419;-73
2022/10/25 02:04:44;;;;;;;12.90;8.02;;;;;;;13.19;100.00;100454.47;5011431;28;20033;-73
2022/10/25 02:07:20;;;;;;;16.35;7.60;;;;;;;13.22;100.00;100498.59;5011127;28;20026;-74
2022/10/25 02:10:02;;;;;;;12.45;7.60;;;;;;;12.98;100.00;100438.91;5012481;28;20881;-74
2022/10/25 02:12:55;;;;;;;15.02;8.25;;;;;;;12.84;100.00;100499.72;5012292;28;20030;-74
2022/10/25 02:15:26;;;;;;;15.50;8.35;;;;;;;12.71;100.00;100500.09;5009380;28;20544;-74
2022/10/25 02:17:57;;;;;;;17.08;8.98;;;;;;;12.62;100.00;100495.25;5011940;28;20029;-74
2022/10/25 02:20:26;;;;;;;13.80;8.70;;;;;;;12.57;100.00;100494.56;5011999;28;20041;-73
2022/10/25 02:22:53;;;;;;;15.32;8.90;;;;;;;12.35;100.00;100503.66;5011602;28;20030;-73
2022/10/25 02:25:20;;;;;;;19.17;9.48;;;;;;;11.78;100.00;100442.31;5010296;28;20045;-74
2022/10/25 02:27:50;;;;;;;16.92;8.60;;;;;;;11.84;100.00;100462.53;5012045;28;20022;-73
2022/10/25 02:30:17;;;;;;;16.92;9.10;;;;;;;11.57;100.00;100481.84;5029385;28;20108;-73
2022/10/25 02:32:42;;;;;;;18.48;8.82;;;;;;;11.95;100.00;100483.47;5015534;28;20026;-73
2022/10/25 02:35:17;;;;;;;14.82;8.95;;;;;;;12.14;100.00;100502.53;5029998;28;20032;-73
2022/10/25 02:37:42;;;;;;;14.77;8.77;;;;;;;12.09;100.00;100509.44;5031342;28;20079;-73
2022/10/25 02:40:09;;;;;;;14.00;8.75;;;;;;;12.02;100.00;100506.19;5031038;28;20026;-73
2022/10/25 02:42:35;;;;;;;15.23;9.43;;;;;;;11.98;100.00;100507.16;5031375;28;20068;-72
2022/10/25 02:45:00;;;;;;;15.52;8.88;;;;;;;11.68;100.00;100457.00;5029353;28;20021;-73
2022/10/25 02:47:26;;;;;;;14.82;9.00;;;;;;;11.58;100.00;100424.94;5031007;28;20033;-73
2022/10/25 02:49:51;;;;;;;17.73;9.35;;;;;;;11.48;100.00;100499.03;5031174;28;20032;-72
2022/10/25 02:52:17;;;;;;;17.38;8.85;;;;;;;11.77;100.00;100506.84;5031559;28;20112;-74
2022/10/25 02:54:42;;;;;;;14.25;8.27;;;;;;;11.95;100.00;100496.22;5031443;28;20060;-72
2022/10/25 02:57:08;;;;;;;18.20;9.30;;;;;;;11.31;100.00;100458.69;5029327;28;20029;-72
2022/10/25 02:59:33;;;;;;;14.10;8.07;;;;;;;11.71;100.00;100453.50;5028984;28;20504;-73
2022/10/25 03:01:58;;;;;;;17.08;8.77;;;;;;;11.76;100.00;100428.78;5029437;28;20102;-74
2022/10/25 03:04:24;;;;;;;13.50;8.68;;;;;;;11.42;100.00;100438.09;5029281;28;20036;-71
2022/10/25 03:06:49;;;;;;;12.98;8.40;;;;;;;12.07;100.00;100495.91;5029134;28;20480;-70
2022/10/25 03:09:15;;;;;;;17.00;8.52;;;;;;;11.73;100.00;100467.03;5030146;28;20034;-71
2022/10/25 03:11:40;;;;;;;22.70;10.18;;;;;;;11.71;100.00;100444.16;5029004;28;20025;-72
2022/10/25 03:14:06;;;;;;;18.10;12.00;;;;;;;11.63;100.00;100402.75;5030267;28;20036;-72
2022/10/25 03:16:31;;;;;;;23.83;13.00;;;;;;;11.82;100.00;100505.88;5018450;28;20639;-72
2022/10/25 03:18:57;;;;;;;21.20;11.70;;;;;;;11.97;100.00;100468.97;5024325;28;20053;-72
2022/10/25 03:21:23;;;;;;;22.02;12.27;;;;;;;11.73;100.00;100444.97;5029844;28;20415;-73
2022/10/25 03:23:48;;;;;;;22.27;12.18;;;;;;;11.62;100.00;100370.53;5030697;28;20060;-73
2022/10/25 03:26:14;;;;;;;18.75;11.75;;;;;;;12.09;100.00;100479.69;5030963;28;20033;-72
2022/10/25 03:28:39;;;;;;;18.27;12.00;;;;;;;12.07;100.00;100444.94;5028512;28;20030;-71
2022/10/25 03:31:14;;;;;;;17.08;11.38;;;;;;;11.24;100.00;100370.63;5029485;28;20393;-75
2022/10/25 03:33:40;;;;;;;18.85;12.05;;;;;;;12.44;100.00;100483.03;5030891;28;20112;-75
2022/10/25 03:36:06;;;;;;;18.05;11.52;;;;;;;12.62;100.00;100479.94;5025746;28;20029;-72
2022/10/25 03:38:31;;;;;;;20.23;12.55;;;;;;;12.22;100.00;100434.34;5010707;28;20030;-73
2022/10/25 03:40:56;;;;;;;18.55;11.55;;;;;;;12.27;100.00;100449.50;5012292;28;20044;-73
2022/10/25 03:43:22;;;;;;;18.05;11.40;;;;;;;12.44;100.00;100478.75;5030403;28;20042;-73
2022/10/25 03:45:47;;;;;;;21.35;11.40;;;;;;;12.10;100.00;100485.63;5029143;28;20026;-73
2022/10/25 03:48:13;;;;;;;18.48;11.00;;;;;;;11.75;100.00;100450.00;5030915;28;20071;-74
2022/10/25 03:50:38;;;;;;;18.40;9.75;;;;;;;11.75;100.00;100445.75;5050437;28;20163;-74
2022/10/25 03:53:05;;;;;;;19.10;10.32;;;;;;;11.56;100.00;100410.56;5020686;28;20464;-73
2022/10/25 03:55:31;;;;;;;16.83;10.25;;;;;;;11.91;100.00;100464.03;5009662;28;20041;-72
2022/10/25 03:57:57;;;;;;;20.15;10.52;;;;;;;11.43;100.00;100437.22;5009785;28;20030;-72
2022/10/25 04:00:22;;;;;;;15.27;9.95;;;;;;;11.94;100.00;100479.25;5009318;28;20108;-72
2022/10/25 04:02:56;;;;;;;14.00;9.63;;;;;;;12.08;100.00;100475.47;5010540;28;20485;-73
2022/10/25 04:05:21;;;;;;;18.08;10.32;;;;;;;12.24;100.00;100463.13;5008742;28;20038;-72
2022/10/25 04:07:47;;;;;;;13.25;9.57;;;;;;;11.89;100.00;100428.41;5010111;28;20048;-73
2022/10/25 04:10:13;;;;;;;14.52;10.35;;;;;;;11.86;100.00;100476.06;5009097;28;20036;-74
2022/10/25 04:12:38;;;;;;;15.48;9.93;;;;;;;11.91;100.00;100419.03;5009036;28;20485;-72
2022/10/25 04:15:04;;;;;;;17.50;10.88;;;;;;;12.20;100.00;100472.59;5009078;28;20026;-72
2022/10/25 04:17:29;;;;;;;18.10;11.32;;;;;;;12.14;100.00;100484.69;5010069;28;20053;-74
2022/10/25 04:19:55;;;;;;;20.48;12.93;;;;;;;11.73;100.00;100421.19;5010803;28;20147;-73
2022/10/25 04:22:20;;;;;;;23.00;13.55;;;;;;;11.58;100.00;100445.31;5012495;28;20079;-67
2022/10/25 04:24:48;;;;;;;24.48;13.68;;;;;;;12.05;100.00;100484.91;5025760;28;20412;-67
2022/10/25 04:27:13;;;;;;;23.65;13.10;;;;;;;11.84;100.00;100486.31;5013837;28;20034;-71
2022/10/25 04:29:39;;;;;;;26.60;12.63;;;;;;;11.94;100.00;100490.25;5013125;28;20389;-70
2022/10/25 04:32:04;;;;;;;20.17;12.73;;;;;;;11.88;100.00;100489.59;5011901;28;20065;-73
2022/10/25 04:34:30;;;;;;;24.10;13.02;;;;;;;11.86;100.00;100446.34;5012345;28;20042;-71
2022/10/25 04:36:55;;;;;;;22.60;11.70;;;;;;;11.75;100.00;100434.72;5013128;28;20033;-70
2022/10/25 04:39:21;;;;;;;24.13;12.20;;;;;;;11.68;100.00;100446.81;5013199;28;20018;-72
2022/10/25 04:41:46;;;;;;;22.45;12.57;;;;;;;11.49;100.00;100407.34;5012700;28;20037;-71
2022/10/25 04:44:11;;;;;;;25.98;12.50;;;;;;;11.80;100.00;100466.03;5011411;28;20471;-72
2022/10/25 04:46:37;;;;;;;24.60;12.75;;;;;;;11.90;100.00;100459.84;5013201;28;20037;-74
2022/10/25 04:49:02;;;;;;;82.80;14.65;;;;;;;12.63;100.00;100467.16;5014083;28;20032;-70
2022/10/25 04:51:28;;;;;;;39.08;12.63;;;;;;;13.35;100.00;100443.72;5029598;28;20036;-72
2022/10/25 04:53:54;;;;;;;42.38;12.60;;;;;;;13.48;100.00;100434.78;5015309;28;20091;-71
2022/10/25 04:56:20;;;;;;;37.45;18.88;;;;;;;11.59;100.00;100385.88;5013063;28;20697;-70
2022/10/25 04:58:45;;;;;;;44.55;23.15;;;;;;;11.35;100.00;100400.03;5010924;28;20033;-71
2022/10/25 05:01:13;;;;;;;34.30;20.13;;;;;;;11.59;100.00;100513.19;5010620;28;20538;-70
2022/10/25 05:03:39;;;;;;;31.77;19.08;;;;;;;11.59;100.00;100512.38;5011926;28;20061;-71
2022/10/25 05:06:09;;;;;;;30.17;16.75;;;;;;;11.48;100.00;100510.06;5012353;28;20061;-70
2022/10/25 05:08:35;;;;;;;26.17;18.05;;;;;;;11.37;100.00;100491.63;5012167;28;20030;-70
2022/10/25 05:11:00;;;;;;;28.17;17.50;;;;;;;11.44;100.00;100500.81;5010012;28;20416;-70
2022/10/25 05:13:26;;;;;;;27.05;20.45;;;;;;;11.45;100.00;100499.94;5010216;28;20052;-70
2022/10/25 05:15:55;;;;;;;42.38;25.48;;;;;;;11.73;100.00;100488.25;5009976;28;20026;-70
2022/10/25 05:18:21;;;;;;;35.47;23.27;;;;;;;11.86;100.00;100487.09;5011496;28;20033;-69
2022/10/25 05:20:54;;;;;;;39.97;24.35;;;;;;;12.15;100.00;100499.94;5011461;28;20092;-70
2022/10/25 05:23:20;;;;;;;31.52;20.48;;;;;;;12.07;100.00;100444.94;5011732;28;20053;-71
2022/10/25 05:25:46;;;;;;;35.70;19.50;;;;;;;12.00;100.00;100461.28;5011006;28;20029;-70
2022/10/25 05:28:12;;;;;;;33.97;19.55;;;;;;;12.53;100.00;100504.00;5012121;28;20408;-70
2022/10/25 05:30:42;;;;;;;35.72;18.55;;;;;;;12.49;100.00;100525.38;5012695;28;20449;-69
2022/10/25 05:33:07;;;;;;;30.88;17.33;;;;;;;12.08;100.00;100452.53;5010828;28;20038;-71
2022/10/25 05:35:33;;;;;;;30.85;16.48;;;;;;;12.22;100.00;100502.31;5010630;28;20136;-70
2022/10/25 05:37:59;;;;;;;28.33;17.02;;;;;;;12.06;100.00;100441.53;5010148;28;20420;-71
2022/10/25 05:40:25;;;;;;;27.50;17.25;;;;;;;12.68;100.00;100526.53;5012044;28;20033;-70
2022/10/25 05:42:52;;;;;;;32.05;18.25;;;;;;;12.49;100.00;100525.38;5011713;28;20430;-71
2022/10/25 05:45:18;;;;;;;31.75;17.45;;;;;;;13.34;100.00;100528.88;5011640;28;20030;-71
2022/10/25 05:47:43;;;;;;;40.22;19.50;;;;;;;13.13;100.00;100406.16;5011938;28;20425;-71
2022/10/25 05:50:08;;;;;;;39.47;21.15;;;;;;;13.19;100.00;100462.13;5010546;28;20026;-71
2022/10/25 05:52:34;;;;;;;30.70;19.65;;;;;;;12.66;100.00;100441.56;5010466;28;20485;-71
2022/10/25 05:54:59;;;;;;;33.75;20.83;;;;;;;12.81;100.00;100456.44;5011366;28;20412;-71
2022/10/25 05:57:25;;;;;;;36.67;20.92;;;;;;;12.62;100.00;100460.38;5012025;28;20042;-70
2022/10/25 05:59:50;;;;;;;34.58;20.60;;;;;;;13.31;100.00;100480.44;5011688;28;20034;-71
2022/10/25 06:02:15;;;;;;;35.35;20.40;;;;;;;14.52;100.00;100533.50;5011875;28;20026;-70
2022/10/25 06:04:41;;;;;;;30.55;20.52;;;;;;;14.70;100.00;100529.44;5011533;28;20034;-71
2022/10/25 06:07:06;;;;;;;36.33;17.40;;;;;;;14.68;100.00;100536.34;5011454;28;20416;-71
2022/10/25 06:09:32;;;;;;;41.65;18.92;;;;;;;14.83;100.00;100524.72;5010295;28;20116;-71
2022/10/25 06:11:57;;;;;;;38.88;18.05;;;;;;;14.30;100.00;100483.16;5011172;28;20033;-71
2022/10/25 06:14:23;;;;;;;29.95;17.75;;;;;;;14.02;100.00;100456.84;5010329;28;20038;-70
2022/10/25 06:16:48;;;;;;;30.30;17.73;;;;;;;14.33;100.00;100542.72;5010050;28;20033;-70
2022/10/25 06:19:13;;;;;;;34.08;18.65;;;;;;;13.69;100.00;100500.50;5011366;28;20033;-70
2022/10/25 06:21:39;;;;;;;32.40;17.77;;;;;;;13.62;100.00;100463.28;5009972;28;20033;-71
2022/10/25 06:24:05;;;;;;;29.15;17.10;;;;;;;13.58;100.00;100461.72;5009902;28;20503;-72
2022/10/25 06:26:30;;;;;;;44.03;16.75;;;;;;;14.36;100.00;100532.34;5011238;28;20503;-70
2022/10/25 06:28:59;;;;;;;37.30;17.10;;;;;;;13.63;100.00;100429.16;5009832;28;20030;-70
2022/10/25 06:31:25;;;;;;;34.03;16.17;;;;;;;14.67;100.00;100552.59;5010019;28;20497;-71
2022/10/25 06:33:50;;;;;;;35.30;17.33;;;;;;;14.64;100.00;100488.72;5010897;28;20057;-71
2022/10/25 06:36:18;;;;;;;42.35;18.95;;;;;;;14.99;100.00;100518.16;5009572;28;20123;-71
2022/10/25 06:38:44;;;;;;;38.47;20.42;;;;;;;14.64;100.00;100556.09;5009853;28;20053;-71
2022/10/25 06:41:22;;;;;;;39.65;21.52;;;;;;;14.42;100.00;100468.19;5009985;28;20113;-70
2022/10/25 06:43:48;;;;;;;35.95;21.63;;;;;;;15.17;100.00;100497.78;5008469;28;20085;-71
2022/10/25 06:46:18;;;;;;;33.28;21.52;;;;;;;14.85;100.00;100477.72;5009574;28;20069;-70
2022/10/25 06:48:44;;;;;;;37.85;20.83;;;;;;;15.27;100.00;100537.53;5011016;28;20084;-72
2022/10/25 06:51:09;;;;;;;34.17;21.38;;;;;;;15.15;100.00;100455.22;5010563;28;20452;-70
2022/10/25 06:53:36;;;;;;;32.88;19.98;;;;;;;15.25;100.00;100475.28;5009240;28;20037;-71
2022/10/25 06:56:03;;;;;;;31.15;19.67;;;;;;;16.19;100.00;100535.56;5009630;28;20037;-70
2022/10/25 06:58:30;;;;;;;34.20;18.67;;;;;;;16.43;100.00;100526.81;5009286;28;20030;-70
2022/10/25 07:01:00;;;;;;;35.15;19.55;;;;;;;16.10;100.00;100469.25;5011083;28;20029;-71
2022/10/25 07:03:29;;;;;;;37.47;20.25;;;;;;;16.32;100.00;100470.81;5010523;28;20603;-71
2022/10/25 07:05:58;;;;;;;34.67;18.08;;;;;;;16.15;100.00;100522.03;5009126;28;20507;-70
2022/10/25 07:08:24;;;;;;;36.30;21.40;;;;;;;16.49;100.00;100490.66;5010324;28;20041;-70
2022/10/25 07:10:53;;;;;;;36.42;24.88;;;;;;;16.62;100.00;100514.06;5008947;28;20034;-71
2022/10/25 07:13:19;;;;;;;36.13;25.80;;;;;;;16.60;100.00;100510.75;5010375;28;20053;-71
2022/10/25 07:15:44;;;;;;;40.53;24.48;;;;;;;16.75;100.00;100456.97;5009390;28;20057;-71
2022/10/25 07:18:10;;;;;;;34.42;23.90;;;;;;;16.82;100.00;100525.09;5008696;28;20038;-71
2022/10/25 07:20:35;;;;;;;34.45;23.92;;;;;;;16.69;100.00;100521.44;5010686;28;20483;-73
2022/10/25 07:23:01;;;;;;;32.50;22.77;;;;;;;16.24;100.00;100459.25;5009239;28;20056;-71
2022/10/25 07:25:26;;;;;;;36.60;23.00;;;;;;;16.82;100.00;100507.13;5010624;28;20038;-71
2022/10/25 07:27:52;;;;;;;29.48;23.05;;;;;;;16.81;100.00;100505.47;5010442;28;20393;-71
2022/10/25 07:30:17;;;;;;;33.83;22.48;;;;;;;16.86;100.00;100446.16;5010632;28;20048;-71
2022/10/25 07:32:43;;;;;;;29.48;21.73;;;;;;;16.43;100.00;100463.50;5010753;28;20030;-70
2022/10/25 07:35:08;;;;;;;28.40;22.45;;;;;;;16.95;100.00;100476.59;5009479;28;20041;-71
2022/10/25 07:37:33;;;;;;;30.08;23.00;;;;;;;17.23;100.00;100452.09;5010327;28;20034;-70
2022/10/25 07:39:59;;;;;;;31.10;23.48;;;;;;;16.74;100.00;100508.41;5008955;28;20041;-70
2022/10/25 07:42:25;;;;;;;30.50;21.65;;;;;;;17.51;100.00;100454.19;5008954;28;20030;-71
2022/10/25 07:44:50;;;;;;;32.67;22.45;;;;;;;16.94;100.00;100421.81;5009080;28;20026;-72
2022/10/25 07:47:15;;;;;;;31.27;20.67;;;;;;;17.81;100.00;100428.69;5010424;28;20378;-71
2022/10/25 07:49:41;;;;;;;32.83;22.80;;;;;;;17.51;100.00;100448.25;5009212;28;20026;-71
2022/10/25 07:52:07;;;;;;;32.95;22.25;;;;;;;17.96;100.00;100457.09;5008826;28;20026;-71
2022/10/25 07:54:32;;;;;;;33.90;21.55;;;;;;;17.70;100.00;100456.69;5011660;28;20030;-71
2022/10/25 07:56:58;;;;;;;33.78;21.98;;;;;;;18.39;100.00;100499.47;5014242;28;20030;-70
2022/10/25 07:59:23;;;;;;;32.08;23.50;;;;;;;18.17;100.00;100494.59;5012350;28;20052;-70
2022/10/25 08:01:49;;;;;;;36.67;22.15;;;;;;;18.34;100.00;100407.94;5014067;28;20417;-70
2022/10/25 08:04:15;;;;;;;31.67;23.00;;;;;;;17.97;100.00;100445.88;5012499;28;20066;-71
2022/10/25 08:06:40;;;;;;;34.67;23.80;;;;;;;17.63;100.00;100453.59;5012420;28;20033;-71
2022/10/25 08:09:06;;;;;;;31.45;22.85;;;;;;;18.15;100.00;100468.09;5012859;28;20032;-71
2022/10/25 08:11:31;;;;;;;34.20;21.77;;;;;;;18.18;100.00;100428.50;5012570;28;20034;-71
2022/10/25 08:13:57;;;;;;;29.52;22.48;;;;;;;18.31;100.00;100481.00;5012216;28;20127;-71
2022/10/25 08:16:22;;;;;;;36.30;22.10;;;;;;;18.20;100.00;100473.81;5013604;28;20042;-71
2022/10/25 08:18:47;;;;;;;32.35;22.48;;;;;;;18.30;100.00;100483.66;5012544;28;20026;-71
2022/10/25 08:21:13;;;;;;;29.90;21.05;;;;;;;18.18;100.00;100420.78;5012146;28;20408;-71
2022/10/25 08:23:39;;;;;;;29.52;21.38;;;;;;;18.59;100.00;100457.25;5013692;28;20026;-71
2022/10/25 08:26:04;;;;;;;34.63;21.73;;;;;;;18.77;100.00;100443.38;5013214;28;20415;-72
2022/10/25 08:28:30;;;;;;;30.75;21.70;;;;;;;18.66;100.00;100371.03;5013671;28;20029;-70
2022/10/25 08:30:55;;;;;;;30.00;20.70;;;;;;;18.95;100.00;100456.13;5013319;28;20492;-70
2022/10/25 08:33:22;;;;;;;34.05;20.42;;;;;;;18.44;100.00;100409.94;5013566;28;20045;-69
2022/10/25 08:35:47;;;;;;;27.67;19.52;;;;;;;18.41;100.00;100435.00;5012169;28;20036;-71
2022/10/25 08:38:12;;;;;;;29.27;21.05;;;;;;;18.99;100.00;100460.16;5011891;28;20030;-71
2022/10/25 08:40:41;;;;;;;28.50;20.38;;;;;;;18.39;100.00;100467.72;5011877;28;20076;-70
2022/10/25 08:43:23;;;;;;;30.70;20.10;;;;;;;18.42;100.00;100458.09;5011865;28;20041;-70
2022/10/25 08:45:57;;;;;;;;;;;;;;;19.03;100.00;100456.50;5013663;28;20026;-71
2022/10/25 08:48:29;;;;;;;33.17;20.15;;;;;;;19.37;100.00;100442.59;5012119;28;19920;-69
2022/10/25 08:51:01;;;;;;;28.42;19.90;;;;;;;19.46;100.00;100424.03;5013108;28;20026;-70
2022/10/25 08:53:39;;;;;;;30.33;20.15;;;;;;;19.66;100.00;100444.34;5012078;28;20030;-70
2022/10/25 08:56:07;;;;;;;26.70;19.83;;;;;;;19.67;100.00;100425.34;5011324;28;20038;-70
2022/10/25 08:58:37;;;;;;;26.90;20.25;;;;;;;19.78;100.00;100437.66;5012834;28;20397;-70
2022/10/25 09:01:13;;;;;;;31.17;20.33;;;;;;;20.09;100.00;100434.06;5012833;28;20025;-71
2022/10/25 09:03:39;;;;;;;31.77;19.13;;;;;;;20.25;100.00;100398.69;5012697;28;20053;-69
2022/10/25 09:06:05;;;;;;;29.58;20.98;;;;;;;20.04;100.00;100442.13;5011646;28;20040;-70
2022/10/25 09:08:48;;;;;;;30.90;20.65;;;;;;;20.52;100.00;100434.00;5012461;28;20096;-74
2022/10/25 09:11:38;;;;;;;31.02;19.77;;;;;;;20.18;100.00;100442.13;4320648;28;10001082;-71
2022/10/25 09:14:15;;;;;;;29.33;19.65;;;;;;;19.88;100.00;100438.78;5010534;28;20042;-70
2022/10/25 09:17:03;;;;;;;26.02;18.63;;;;;;;20.24;100.00;100377.22;5027552;28;20041;-70
2022/10/25 09:19:38;;;;;;;27.85;18.38;;;;;;;20.98;100.00;100379.41;4994826;28;20472;-71
2022/10/25 09:22:19;;;;;;;23.40;17.23;;;;;;;21.06;100.00;100429.75;5007614;28;20052;-71
2022/10/25 09:24:50;;;;;;;27.60;16.63;;;;;;;21.42;100.00;100429.13;5005246;28;20468;-71
2022/10/25 09:27:32;;;;;;;;;;;;;;;21.38;100.00;100419.91;5012432;28;20366;-70
2022/10/25 09:30:08;;;;;;;25.60;15.98;;;;;;;20.82;100.00;100364.06;5027063;28;19916;-70
2022/10/25 09:32:45;;;;;;;22.60;15.63;;;;;;;21.61;100.00;100414.03;5010851;28;20037;-71
2022/10/25 09:35:26;;;;;;;21.90;15.15;;;;;;;21.67;100.00;100405.88;5010082;28;20195;-71
2022/10/25 09:37:59;;;;;;;26.17;15.82;;;;;;;21.10;100.00;100353.63;5027126;28;20052;-70
2022/10/25 09:40:31;;;;;;;23.15;14.93;;;;;;;21.35;100.00;100347.69;5027137;28;20230;-70
2022/10/25 09:43:03;;;;;;;20.73;14.75;;;;;;;21.72;100.00;100387.44;5007624;28;20046;-69
2022/10/25 09:45:43;;;;;;;27.80;15.40;;;;;;;21.85;100.00;100383.16;5007739;28;20033;-70
2022/10/25 09:48:47;;;;;;;24.15;14.70;;;;;;;21.62;99.76;100396.75;5008529;28;20211;-70
2022/10/25 09:51:34;;;;;;;24.52;15.27;;;;;;;22.28;100.00;100393.00;5008612;28;20034;-70
2022/10/25 09:54:19;;;;;;;24.90;15.00;;;;;;;22.16;100.00;100380.09;5014035;28;20095;-71
2022/10/25 09:56:44;;;;;;;22.98;15.07;;;;;;;22.20;96.94;100378.97;5012237;28;20076;-71
2022/10/25 09:59:13;;;;;;;26.05;14.98;;;;;;;22.41;97.51;100330.78;5019928;28;20057;-70
2022/10/25 10:01:40;;;;;;;20.52;14.63;;;;;;;22.58;98.00;100371.91;5010364;28;20092;-71
2022/10/25 10:04:25;;;;;;;21.02;14.77;;;;;;;22.31;96.27;100373.84;5010700;28;20022;-71
2022/10/25 10:06:55;;;;;;;24.15;15.48;;;;;;;22.21;98.17;100363.31;5010019;28;20500;-71
2022/10/25 10:09:22;;;;;;;37.17;19.55;;;;;;;22.80;94.83;100363.47;5010843;28;20120;-71
2022/10/25 10:11:52;;;;;;;25.55;15.65;;;;;;;22.15;94.31;100335.22;5011554;28;20491;-71
2022/10/25 10:14:43;;;;;;;24.70;14.65;;;;;;;22.76;91.39;100356.84;5012031;28;20030;-72
2022/10/25 10:17:16;;;;;;;20.38;15.60;;;;;;;22.76;94.21;100342.09;5009754;28;20080;-70
2022/10/25 10:19:42;;;;;;;22.95;15.55;;;;;;;22.19;93.53;100292.63;5010109;28;20057;-70
2022/10/25 10:22:14;;;;;;;22.25;15.40;;;;;;;22.79;95.09;100333.25;5011068;28;20025;-72
2022/10/25 10:24:42;;;;;;;23.48;15.23;;;;;;;22.94;95.05;100342.50;5011156;28;20037;-71
2022/10/25 10:27:19;;;;;;;22.30;14.18;;;;;;;22.54;95.71;100347.13;5009814;28;20034;-72
2022/10/25 10:29:56;;;;;;;21.02;14.18;;;;;;;22.33;95.81;100336.53;5010046;28;20026;-72
2022/10/25 10:32:32;;;;;;;22.75;14.30;;;;;;;22.15;97.09;100285.16;5009837;28;20197;-72
2022/10/25 10:34:58;;;;;;;23.58;15.15;;;;;;;21.88;97.01;100285.34;5010190;28;20044;-72
2022/10/25 10:37:29;;;;;;;23.13;15.23;;;;;;;22.13;96.87;100277.50;5010127;28;20550;-71
2022/10/25 10:40:02;;;;;;;21.40;14.68;;;;;;;22.66;96.01;100328.13;5011287;28;20134;-71
2022/10/25 10:42:33;;;;;;;18.38;14.35;;;;;;;21.99;95.82;100280.25;5010303;28;20038;-70
2022/10/25 10:45:02;;;;;;;;;;;;;;;22.64;97.11;100330.00;5011302;28;20073;-71
2022/10/25 10:47:34;;;;;;;22.52;14.27;;;;;;;22.29;95.57;100306.59;5011137;28;19922;-72
2022/10/25 10:50:08;;;;;;;22.52;15.88;;;;;;;22.98;89.98;100271.31;5010009;28;20030;-71
2022/10/25 10:52:43;;;;;;;17.38;13.38;;;;;;;22.70;90.19;100259.56;5009961;28;20037;-71
2022/10/25 10:55:19;;;;;;;22.25;13.20;;;;;;;23.02;91.39;100299.50;5011279;28;20030;-71
2022/10/25 10:57:45;;;;;;;20.38;13.15;;;;;;;22.94;87.78;100264.69;5009499;28;20033;-71
2022/10/25 11:00:21;;;;;;;20.50;13.02;;;;;;;23.14;86.46;100311.56;5010894;28;20148;-70
2022/10/25 11:02:47;;;;;;;20.83;13.50;;;;;;;23.37;85.82;100315.09;5010966;28;20069;-73
2022/10/25 11:05:44;;;;;;;20.27;12.73;;;;;;;23.41;85.76;100277.56;5009597;28;20064;-71
2022/10/25 11:08:09;;;;;;;20.73;13.07;;;;;;;23.39;84.20;100307.19;5008388;28;20044;-72
2022/10/25 11:10:36;;;;;;;20.77;13.40;;;;;;;23.44;84.33;100303.28;5009490;28;20038;-71
2022/10/25 11:13:06;;;;;;;21.65;12.35;;;;;;;23.88;82.49;100311.09;5009987;28;20034;-71
2022/10/25 11:15:44;;;;;;;21.30;13.05;;;;;;;23.71;77.99;100311.56;5009687;28;20029;-70
2022/10/25 11:18:12;;;;;;;22.10;13.30;;;;;;;23.23;82.11;100297.09;5009989;28;20069;-71